This is the latest recevied weather packets stored in our database for station/object OK3MS-5. If no packets are shown the sender has not sent any weather packets the latest 10 day(s).
| Time | Temp. | Humidity | Pressure | Rain* | Wind** | Luminosity | Snow |
|---|---|---|---|---|---|---|---|
| 1787553303 | 13.33° C | 74% | 1022.1 hPa | 0 mm | - | 175 W/m² | - |
| 1787553004 | 13.33° C | 76% | 1022.3 hPa | 0 mm | - | 162 W/m² | - |
| 1787552703 | 12.78° C | 77% | 1022.3 hPa | 0 mm | - | 154 W/m² | - |
| 1787552406 | 12.22° C | 80% | 1022.4 hPa | 0 mm | - | 140 W/m² | - |
| 1787552103 | 12.22° C | 81% | 1022.5 hPa | 0 mm | - | 65 W/m² | - |
| 1787551802 | 11.67° C | 83% | 1022.7 hPa | 0 mm | - | 116 W/m² | - |
| 1787551504 | 11.67° C | 84% | 1022.7 hPa | 0 mm | - | 105 W/m² | - |
| 1787551203 | 11.67° C | 84% | 1022.6 hPa | 0 mm | - | 86 W/m² | - |
| 1787550903 | 11.67° C | 85% | 1022.6 hPa | 0 mm | - | 61 W/m² | - |
| 1787550605 | 11.67° C | 86% | 1022.6 hPa | 0 mm | - | 47 W/m² | - |
| 1787550302 | 11.11° C | 85% | 1022.8 hPa | 0 mm | - | 45 W/m² | - |
| 1787550004 | 10.56° C | 90% | 1022.9 hPa | 0 mm | - | 44 W/m² | - |
| 1787549703 | 10° C | 91% | 1022.9 hPa | 0 mm | - | 42 W/m² | - |
| 1787549404 | 10° C | 91% | 1022.9 hPa | 0 mm | - | 40 W/m² | - |
| 1787549104 | 9.44° C | 91% | 1023 hPa | 0 mm | - | 39 W/m² | - |
| 1787548803 | 9.44° C | 90% | 1022.9 hPa | 0 mm | - | 37 W/m² | - |
| 1787548503 | 9.44° C | 89% | 1022.8 hPa | 0 mm | - | 35 W/m² | - |
| 1787548204 | 10° C | 87% | 1022.7 hPa | 0 mm | - | 33 W/m² | - |
| 1787547905 | 9.44° C | 88% | 1022.8 hPa | 0 mm | - | 31 W/m² | - |
| 1787547604 | 8.89° C | 91% | 1023.1 hPa | 0 mm | - | 29 W/m² | - |
| 1787547302 | 7.78° C | 98% | 1023.2 hPa | 0 mm | - | 26 W/m² | - |
| 1787547003 | 7.78° C | 97% | 1023.4 hPa | 0 mm | - | 24 W/m² | - |
| 1787546703 | 7.22° C | 97% | 1023.3 hPa | 0 mm | - | 22 W/m² | - |
| 1787546406 | 7.22° C | 97% | 1023.2 hPa | 0 mm | - | 19 W/m² | - |
| 1787546105 | 7.22° C | 97% | 1023.2 hPa | 0 mm | - | 16 W/m² | - |
* Rain latest hour (hover to see other rain measurements)
** Current wind speed in m/s (hover to see current wind gust speed)